createdAt,value
2023-09-27T00:01:29.060Z,20.80
2023-09-27T00:09:41.067Z,20.80
2023-09-27T00:17:48.158Z,20.70
2023-09-27T00:25:56.300Z,20.60
2023-09-27T00:34:01.770Z,20.50
2023-09-27T00:42:09.859Z,20.30
2023-09-27T00:50:15.482Z,20.30
2023-09-27T00:58:24.655Z,20.30
2023-09-27T01:06:30.622Z,20.20
2023-09-27T01:14:39.022Z,20.20
2023-09-27T01:22:44.525Z,20.20
2023-09-27T01:30:52.559Z,20.20
2023-09-27T01:38:58.106Z,20.10
2023-09-27T01:47:06.346Z,20.00
2023-09-27T01:55:12.551Z,19.90
2023-09-27T02:03:20.692Z,19.90
2023-09-27T02:11:27.017Z,19.80
2023-09-27T02:19:35.712Z,19.80
2023-09-27T02:27:41.414Z,19.60
2023-09-27T02:35:49.471Z,19.50
2023-09-27T02:43:55.040Z,19.40
2023-09-27T02:52:03.083Z,19.30
2023-09-27T03:00:10.345Z,19.20
2023-09-27T03:08:19.067Z,19.20
2023-09-27T03:16:25.034Z,19.10
2023-09-27T03:24:39.526Z,18.80
2023-09-27T03:32:45.188Z,18.60
2023-09-27T03:40:53.284Z,18.50
2023-09-27T03:48:59.029Z,18.40
2023-09-27T03:57:07.437Z,18.40
2023-09-27T04:05:13.714Z,18.30
2023-09-27T04:13:21.926Z,18.30
2023-09-27T04:21:27.453Z,18.40
2023-09-27T04:29:35.980Z,18.10
2023-09-27T04:37:41.844Z,18.10
2023-09-27T04:45:50.682Z,18.10
2023-09-27T04:53:56.267Z,18.20
2023-09-27T05:02:13.305Z,18.30
2023-09-27T05:10:19.016Z,18.10
2023-09-27T05:18:28.061Z,18.20
2023-09-27T05:26:34.292Z,18.30
2023-09-27T05:34:42.500Z,18.60
2023-09-27T05:42:47.950Z,18.90
2023-09-27T05:50:56.011Z,19.20
2023-09-27T05:59:03.069Z,19.40
2023-09-27T06:07:14.651Z,19.30
2023-09-27T06:15:20.874Z,19.90
2023-09-27T06:23:29.043Z,20.80
2023-09-27T06:31:35.574Z,21.20
2023-09-27T06:39:43.693Z,21.80
2023-09-27T06:47:50.390Z,22.20
2023-09-27T06:55:58.651Z,22.80
2023-09-27T07:04:05.182Z,22.40
2023-09-27T07:12:13.353Z,23.00
2023-09-27T07:20:25.909Z,23.60
2023-09-27T07:28:35.467Z,23.90
2023-09-27T07:36:40.884Z,24.40
2023-09-27T07:44:48.875Z,24.60
2023-09-27T07:52:54.276Z,25.10
2023-09-27T08:01:02.370Z,25.20
2023-09-27T08:09:10.763Z,25.50
2023-09-27T08:17:22.965Z,25.30
2023-09-27T08:25:28.512Z,25.70
2023-09-27T08:33:37.123Z,26.50
2023-09-27T08:41:42.900Z,26.20
2023-09-27T08:49:52.545Z,26.40
2023-09-27T08:57:59.827Z,26.80
2023-09-27T09:06:12.382Z,26.80
2023-09-27T09:14:18.612Z,27.40
2023-09-27T09:22:26.788Z,28.30
2023-09-27T09:30:39.027Z,28.20
2023-09-27T09:38:47.177Z,29.00
2023-09-27T09:46:53.335Z,30.50
2023-09-27T09:55:15.245Z,36.50
2023-09-27T10:03:26.575Z,44.60
2023-09-27T10:11:36.595Z,49.00
2023-09-27T10:19:44.321Z,53.40
2023-09-27T10:28:11.605Z,53.90
2023-09-27T10:36:34.181Z,55.10
2023-09-27T10:44:45.043Z,55.60
2023-09-27T10:52:50.844Z,56.60
2023-09-27T11:01:01.897Z,57.30
2023-09-27T11:09:08.761Z,56.30
2023-09-27T11:17:26.931Z,55.90
2023-09-27T11:25:32.990Z,54.80
2023-09-27T11:33:41.121Z,55.90
2023-09-27T11:41:47.701Z,56.10
2023-09-27T11:49:56.426Z,46.30
2023-09-27T11:58:02.881Z,40.70
2023-09-27T12:06:12.303Z,36.80
2023-09-27T12:14:17.913Z,34.50
2023-09-27T12:22:25.991Z,33.20
2023-09-27T12:30:31.889Z,32.40
2023-09-27T12:38:41.446Z,31.80
2023-09-27T12:46:46.918Z,31.50
2023-09-27T12:54:56.524Z,31.00
2023-09-27T13:03:02.047Z,30.10
2023-09-27T13:11:10.228Z,29.60
2023-09-27T13:19:15.842Z,29.70
2023-09-27T13:27:23.917Z,29.70
2023-09-27T13:35:30.001Z,29.40
2023-09-27T13:43:38.107Z,29.10
2023-09-27T13:51:44.905Z,29.10
2023-09-27T13:59:52.953Z,29.20
2023-09-27T14:07:58.567Z,29.20
2023-09-27T14:16:08.565Z,29.30
2023-09-27T14:24:14.110Z,29.30
2023-09-27T14:32:23.592Z,29.10
2023-09-27T14:40:29.176Z,29.20
2023-09-27T14:48:37.501Z,29.20
2023-09-27T14:56:44.286Z,28.90
2023-09-27T15:04:52.472Z,28.80
2023-09-27T15:12:57.987Z,28.40
2023-09-27T15:21:06.126Z,28.30
2023-09-27T15:29:12.023Z,28.60
2023-09-27T15:37:20.073Z,28.30
2023-09-27T15:45:26.260Z,28.10
2023-09-27T15:53:38.880Z,28.00
2023-09-27T16:01:44.689Z,27.90
2023-09-27T16:09:52.869Z,28.00
2023-09-27T16:17:58.506Z,28.00
2023-09-27T16:26:06.621Z,27.90
2023-09-27T16:34:12.418Z,27.80
2023-09-27T16:42:20.526Z,27.60
2023-09-27T16:50:26.222Z,27.40
2023-09-27T16:58:34.299Z,27.40
2023-09-27T17:06:39.834Z,27.20
2023-09-27T17:14:47.954Z,27.00
2023-09-27T17:22:53.480Z,26.80
2023-09-27T17:31:02.157Z,26.60
2023-09-27T17:39:08.611Z,26.30
2023-09-27T17:47:21.096Z,26.00
2023-09-27T17:55:27.665Z,25.80
2023-09-27T18:03:39.347Z,25.30
2023-09-27T18:11:44.866Z,25.10
2023-09-27T18:19:55.549Z,24.80
2023-09-27T18:28:01.212Z,24.60
2023-09-27T18:36:09.825Z,24.50
2023-09-27T18:44:16.052Z,24.30
2023-09-27T18:52:25.310Z,24.30
2023-09-27T19:00:33.658Z,24.20
2023-09-27T19:08:41.829Z,24.10
2023-09-27T19:16:47.710Z,23.90
2023-09-27T19:24:58.827Z,23.90
2023-09-27T19:33:04.288Z,23.80
2023-09-27T19:41:12.858Z,23.80
2023-09-27T19:49:21.392Z,23.60
2023-09-27T19:57:29.910Z,23.40
2023-09-27T20:05:35.338Z,23.20
2023-09-27T20:13:44.152Z,23.10
2023-09-27T20:21:51.671Z,22.90
2023-09-27T20:29:59.567Z,22.50
2023-09-27T20:38:09.282Z,22.60
2023-09-27T20:46:25.444Z,22.60
2023-09-27T20:54:31.137Z,22.10
2023-09-27T21:02:40.840Z,22.10
2023-09-27T21:10:46.222Z,22.00
2023-09-27T21:18:55.749Z,21.90
2023-09-27T21:27:01.752Z,22.00
2023-09-27T21:35:11.037Z,21.80
2023-09-27T21:43:16.298Z,21.70
2023-09-27T21:51:24.130Z,21.70
2023-09-27T21:59:29.449Z,21.70
2023-09-27T22:07:37.398Z,21.70
2023-09-27T22:15:42.689Z,21.70
2023-09-27T22:23:51.019Z,21.50
2023-09-27T22:31:59.126Z,21.30
2023-09-27T22:40:17.380Z,21.30
2023-09-27T22:48:22.941Z,21.20
2023-09-27T22:56:31.114Z,21.10
2023-09-27T23:04:36.400Z,21.10
2023-09-27T23:12:44.407Z,20.90
2023-09-27T23:20:49.719Z,20.80
2023-09-27T23:29:18.203Z,20.80
2023-09-27T23:37:32.321Z,20.70
2023-09-27T23:45:42.041Z,20.60
2023-09-27T23:53:48.180Z,20.30
